Time;durP1;ratioP1;P1;durP2;ratioP2;P2;SDS_P1;SDS_P2;PMS_P1;PMS_P2;Temp;Humidity;BMP_temperature;BMP_pressure;BME280_temperature;BME280_humidity;BME280_pressure;Samples;Min_cycle;Max_cycle;Signal;HPM_P1;HPM_P2
2022/05/23 00:00:41;;;;;;;9.45;8.38;;;;;;;;;;6461665;22;20007;-61
2022/05/23 00:03:11;;;;;;;9.10;7.38;;;;;;;;;;6489311;22;20331;-61
2022/05/23 00:05:42;;;;;;;8.95;8.18;;;;;;;;;;6461876;22;20007;-62
2022/05/23 00:08:12;;;;;;;9.32;7.05;;;;;;;;;;6489761;22;20045;-61
2022/05/23 00:10:43;;;;;;;9.35;8.10;;;;;;;;;;6463825;22;19995;-61
2022/05/23 00:13:13;;;;;;;12.27;9.85;;;;;;;;;;6464308;22;20000;-61
2022/05/23 00:15:43;;;;;;;8.20;7.50;;;;;;;;;;6464182;22;20058;-61
2022/05/23 00:18:14;;;;;;;9.20;8.27;;;;;;;;;;6464204;22;20006;-61
2022/05/23 00:20:44;;;;;;;10.95;8.13;;;;;;;;;;6464903;22;20003;-61
2022/05/23 00:23:14;;;;;;;11.75;8.38;;;;;;;;;;6464085;22;20430;-61
2022/05/23 00:25:45;;;;;;;11.73;9.27;;;;;;;;;;6463889;22;20074;-61
2022/05/23 00:28:15;;;;;;;10.75;8.13;;;;;;;;;;6464200;22;19999;-61
2022/05/23 00:30:45;;;;;;;11.60;8.20;;;;;;;;;;6464048;22;19995;-61
2022/05/23 00:36:05;;;;;;;10.60;9.70;;;;;;;;;;6491389;22;20007;-61
2022/05/23 00:38:35;;;;;;;13.00;9.85;;;;;;;;;;6464121;22;19999;-61
2022/05/23 00:44:13;;;;;;;8.63;7.22;;;;;;;;;;6490858;22;19995;-61
2022/05/23 00:46:54;;;;;;;10.43;8.95;;;;;;;;;;6464060;22;20315;-61
2022/05/23 00:49:26;;;;;;;11.90;7.32;;;;;;;;;;6463994;22;20003;-61
2022/05/23 00:51:58;;;;;;;16.45;9.93;;;;;;;;;;6463991;22;20408;-61
2022/05/23 00:54:32;;;;;;;10.63;8.07;;;;;;;;;;6463822;22;20240;-61
2022/05/23 00:57:03;;;;;;;11.32;7.40;;;;;;;;;;6491081;22;19996;-61
2022/05/23 00:59:33;;;;;;;10.30;7.97;;;;;;;;;;6463856;22;20393;-61
2022/05/23 01:02:04;;;;;;;8.75;7.85;;;;;;;;;;6463705;22;20007;-61
2022/05/23 01:04:35;;;;;;;11.57;9.65;;;;;;;;;;6463662;22;20353;-61
2022/05/23 01:07:06;;;;;;;10.90;9.88;;;;;;;;;;6463765;22;20002;-60
2022/05/23 01:09:36;;;;;;;8.98;8.10;;;;;;;;;;6490904;22;19996;-61
2022/05/23 01:14:50;;;;;;;9.02;8.32;;;;;;;;;;6438857;23;20507;-81
2022/05/23 01:17:21;;;;;;;16.42;11.07;;;;;;;;;;6463689;23;20038;-79
2022/05/23 01:19:51;;;;;;;8.05;7.22;;;;;;;;;;6470839;23;19996;-79
2022/05/23 01:22:28;;;;;;;9.43;8.63;;;;;;;;;;6470959;23;19996;-79
2022/05/23 01:25:03;;;;;;;9.82;9.10;;;;;;;;;;6443844;23;20000;-79
2022/05/23 01:27:34;;;;;;;9.38;7.75;;;;;;;;;;6470831;23;20313;-80
2022/05/23 01:30:05;;;;;;;8.50;7.63;;;;;;;;;;6469605;23;20034;-79
2022/05/23 01:32:35;;;;;;;8.90;8.32;;;;;;;;;;6470682;23;20000;-79
2022/05/23 01:35:06;;;;;;;13.00;10.43;;;;;;;;;;6443488;23;19996;-78
2022/05/23 01:37:37;;;;;;;11.00;9.68;;;;;;;;;;6469636;23;20054;-80
2022/05/23 01:40:09;;;;;;;10.82;9.98;;;;;;;;;;6469927;23;19993;-79
2022/05/23 01:42:39;;;;;;;11.95;9.30;;;;;;;;;;6470134;23;20003;-81
2022/05/23 01:45:11;;;;;;;11.75;10.77;;;;;;;;;;6469508;23;20012;-79
2022/05/23 01:47:41;;;;;;;11.73;10.70;;;;;;;;;;6469763;23;20000;-79
2022/05/23 01:50:11;;;;;;;10.00;8.55;;;;;;;;;;6468080;23;20340;-80
2022/05/23 01:52:42;;;;;;;9.73;9.02;;;;;;;;;;6469957;23;19999;-79
2022/05/23 01:55:12;;;;;;;10.55;9.85;;;;;;;;;;6469894;23;20416;-79
2022/05/23 01:57:42;;;;;;;9.60;8.90;;;;;;;;;;6469322;23;20006;-79
2022/05/23 02:03:02;;;;;;;9.73;9.13;;;;;;;;;;6469438;23;20575;-80
2022/05/23 02:05:33;;;;;;;10.63;9.68;;;;;;;;;;6469731;23;20050;-80
2022/05/23 02:08:04;;;;;;;11.18;10.45;;;;;;;;;;6469681;23;20001;-80
2022/05/23 02:10:34;;;;;;;11.27;10.20;;;;;;;;;;6442545;23;20110;-80
2022/05/23 02:13:04;;;;;;;18.07;12.47;;;;;;;;;;6469070;22;20008;-81
2022/05/23 02:15:35;;;;;;;10.50;9.02;;;;;;;;;;6469298;23;20227;-80
2022/05/23 02:18:05;;;;;;;10.85;9.82;;;;;;;;;;6469128;23;20377;-80
2022/05/23 02:20:35;;;;;;;11.27;8.05;;;;;;;;;;6470178;23;19996;-81
2022/05/23 02:23:06;;;;;;;9.45;8.63;;;;;;;;;;6442615;23;20432;-80
2022/05/23 02:25:36;;;;;;;11.55;10.73;;;;;;;;;;6469296;23;19996;-81
2022/05/23 02:28:07;;;;;;;10.80;9.90;;;;;;;;;;6469549;23;19992;-81
2022/05/23 02:30:38;;;;;;;10.85;9.98;;;;;;;;;;6469358;23;20226;-81
2022/05/23 02:33:08;;;;;;;10.63;9.80;;;;;;;;;;6468405;23;20023;-81
2022/05/23 02:35:39;;;;;;;10.60;7.70;;;;;;;;;;6442485;23;20036;-80
2022/05/23 02:38:09;;;;;;;11.00;10.13;;;;;;;;;;6442138;23;20517;-80
2022/05/23 02:40:39;;;;;;;11.77;10.65;;;;;;;;;;6468410;23;20447;-80
2022/05/23 02:43:10;;;;;;;13.77;9.90;;;;;;;;;;6469404;23;20008;-81
2022/05/23 02:45:41;;;;;;;11.15;10.18;;;;;;;;;;6468939;23;20003;-80
2022/05/23 02:48:12;;;;;;;10.05;9.10;;;;;;;;;;6469912;23;20048;-80
2022/05/23 02:50:42;;;;;;;10.82;10.10;;;;;;;;;;6469538;23;20400;-80
2022/05/23 02:53:13;;;;;;;12.07;11.05;;;;;;;;;;6468821;23;20027;-81
2022/05/23 02:55:43;;;;;;;9.40;8.65;;;;;;;;;;6442045;23;20003;-82
2022/05/23 02:58:14;;;;;;;10.38;8.50;;;;;;;;;;6469704;23;20003;-80
2022/05/23 03:00:44;;;;;;;11.18;10.00;;;;;;;;;;6442174;23;20054;-80
2022/05/23 03:03:14;;;;;;;10.03;9.33;;;;;;;;;;6441722;23;20478;-81
2022/05/23 03:05:45;;;;;;;15.82;10.02;;;;;;;;;;6441545;23;20281;-80
2022/05/23 03:08:17;;;;;;;13.73;11.13;;;;;;;;;;6468630;23;19996;-80
2022/05/23 03:10:48;;;;;;;10.27;9.23;;;;;;;;;;6469247;23;20074;-80
2022/05/23 03:13:18;;;;;;;15.93;10.30;;;;;;;;;;6468618;22;20029;-81
2022/05/23 03:15:48;;;;;;;11.63;9.13;;;;;;;;;;6468893;23;19992;-80
2022/05/23 03:18:18;;;;;;;11.73;10.83;;;;;;;;;;6469279;23;20223;-80
2022/05/23 03:20:54;;;;;;;11.13;10.33;;;;;;;;;;6468731;23;20250;-80
2022/05/23 03:29:21;;;;;;;11.50;10.55;;;;;;;;;;6373186;23;20009;-80
2022/05/23 03:31:51;;;;;;;11.13;10.43;;;;;;;;;;6421152;23;20055;-80
2022/05/23 03:34:22;;;;;;;8.87;8.27;;;;;;;;;;6468879;23;20427;-80
2022/05/23 03:36:52;;;;;;;11.10;10.18;;;;;;;;;;6441698;23;20239;-82
2022/05/23 03:39:22;;;;;;;12.35;11.15;;;;;;;;;;6469128;23;19996;-81
2022/05/23 03:41:53;;;;;;;11.90;9.23;;;;;;;;;;6468867;23;20007;-80
2022/05/23 03:44:23;;;;;;;11.43;10.52;;;;;;;;;;6469556;23;20238;-80
2022/05/23 03:46:53;;;;;;;11.88;11.00;;;;;;;;;;6471014;23;20024;-80
2022/05/23 03:49:23;;;;;;;10.35;9.65;;;;;;;;;;6443907;23;20079;-80
2022/05/23 03:51:54;;;;;;;13.82;10.60;;;;;;;;;;6444097;23;20000;-81
2022/05/23 03:54:25;;;;;;;11.70;10.43;;;;;;;;;;6443128;23;19992;-81
2022/05/23 03:57:02;;;;;;;11.10;9.98;;;;;;;;;;6470943;23;20432;-80
2022/05/23 03:59:33;;;;;;;10.43;9.70;;;;;;;;;;6444151;23;20010;-81
2022/05/23 04:02:04;;;;;;;12.65;11.20;;;;;;;;;;6472923;23;20336;-80
2022/05/23 04:04:34;;;;;;;10.85;9.85;;;;;;;;;;6470862;23;20072;-80
2022/05/23 04:07:05;;;;;;;11.75;10.80;;;;;;;;;;6471270;23;20444;-79
2022/05/23 04:09:35;;;;;;;11.05;10.45;;;;;;;;;;6471027;23;20439;-80
2022/05/23 04:12:06;;;;;;;10.93;10.27;;;;;;;;;;6471443;23;20063;-80
2022/05/23 04:14:36;;;;;;;12.43;11.15;;;;;;;;;;6470661;22;20000;-81
2022/05/23 04:17:07;;;;;;;13.93;9.88;;;;;;;;;;6471783;23;19996;-80
2022/05/23 04:19:38;;;;;;;13.07;11.20;;;;;;;;;;6472187;23;20015;-81
2022/05/23 04:22:08;;;;;;;11.60;10.65;;;;;;;;;;6472752;23;20008;-80
2022/05/23 04:24:38;;;;;;;12.53;11.53;;;;;;;;;;6477128;23;20002;-81
2022/05/23 04:27:08;;;;;;;12.38;11.02;;;;;;;;;;6474694;23;20227;-81
2022/05/23 04:29:39;;;;;;;14.95;10.02;;;;;;;;;;6444670;23;20332;-81
2022/05/23 04:35:13;;;;;;;10.52;9.35;;;;;;;;;;6469695;23;20000;-82
2022/05/23 04:37:45;;;;;;;12.38;11.07;;;;;;;;;;6443264;23;20000;-82
2022/05/23 04:40:17;;;;;;;11.82;9.98;;;;;;;;;;6445180;23;20465;-82
2022/05/23 04:42:48;;;;;;;11.02;10.32;;;;;;;;;;6470798;23;19996;-81
2022/05/23 04:45:22;;;;;;;10.55;9.68;;;;;;;;;;6470133;23;20436;-81
2022/05/23 04:50:41;;;;;;;11.82;11.02;;;;;;;;;;6470638;23;20035;-82
2022/05/23 04:53:11;;;;;;;12.77;10.70;;;;;;;;;;6469874;23;19992;-82
2022/05/23 04:55:43;;;;;;;10.57;9.80;;;;;;;;;;6469131;23;19992;-81
2022/05/23 04:58:14;;;;;;;10.55;9.52;;;;;;;;;;6470248;23;19996;-81
2022/05/23 05:00:44;;;;;;;11.55;10.50;;;;;;;;;;6443130;23;20000;-81
2022/05/23 05:03:16;;;;;;;10.52;9.63;;;;;;;;;;6470149;23;20004;-81
2022/05/23 05:05:46;;;;;;;11.18;10.20;;;;;;;;;;6470289;23;20027;-82
2022/05/23 05:08:17;;;;;;;12.90;10.98;;;;;;;;;;6470566;23;20000;-82
2022/05/23 05:10:47;;;;;;;12.15;11.13;;;;;;;;;;6470404;23;20000;-81
2022/05/23 05:13:17;;;;;;;11.00;9.97;;;;;;;;;;6450748;23;20027;-83
2022/05/23 05:15:47;;;;;;;13.13;12.05;;;;;;;;;;6470176;23;20278;-81
2022/05/23 05:18:18;;;;;;;10.63;9.27;;;;;;;;;;6470846;22;19996;-81
2022/05/23 05:20:49;;;;;;;11.07;9.98;;;;;;;;;;6469125;23;20010;-81
2022/05/23 05:23:20;;;;;;;9.98;9.07;;;;;;;;;;6471024;22;20079;-81
2022/05/23 05:25:53;;;;;;;9.82;9.02;;;;;;;;;;6468231;23;20015;-81
2022/05/23 05:28:24;;;;;;;13.07;10.63;;;;;;;;;;6473798;23;19996;-81
2022/05/23 05:31:12;;;;;;;10.48;9.68;;;;;;;;;;6467539;22;20073;-81
2022/05/23 05:33:48;;;;;;;11.45;10.70;;;;;;;;;;6463725;22;20420;-80
2022/05/23 05:36:20;;;;;;;21.02;11.43;;;;;;;;;;6469297;22;20016;-79
2022/05/23 05:38:54;;;;;;;13.25;10.20;;;;;;;;;;6468381;23;20000;-79
2022/05/23 05:41:27;;;;;;;10.25;9.23;;;;;;;;;;6474161;22;20052;-81
2022/05/23 05:44:00;;;;;;;25.27;23.17;;;;;;;;;;6477478;22;20000;-79
2022/05/23 05:46:33;;;;;;;11.23;10.35;;;;;;;;;;6475451;22;20369;-81
2022/05/23 05:49:05;;;;;;;11.15;10.18;;;;;;;;;;6468441;22;20031;-80
2022/05/23 05:51:36;;;;;;;12.13;10.90;;;;;;;;;;6466137;23;20453;-79
2022/05/23 05:54:07;;;;;;;10.32;9.50;;;;;;;;;;6467055;22;20078;-79
2022/05/23 05:56:37;;;;;;;17.00;10.57;;;;;;;;;;6467086;22;19992;-80
2022/05/23 05:59:08;;;;;;;18.23;11.50;;;;;;;;;;6467901;22;19996;-79
2022/05/23 06:01:40;;;;;;;11.27;10.23;;;;;;;;;;6467459;22;20004;-80
2022/05/23 06:04:10;;;;;;;9.23;8.55;;;;;;;;;;6464928;23;20067;-79
2022/05/23 06:12:19;;;;;;;11.98;10.93;;;;;;;;;;6466560;22;20436;-80
2022/05/23 06:14:49;;;;;;;12.33;9.87;;;;;;;;;;6439712;23;20001;-80
2022/05/23 06:17:19;;;;;;;11.30;10.57;;;;;;;;;;6440582;23;20230;-82
2022/05/23 06:19:49;;;;;;;11.40;10.50;;;;;;;;;;6469998;23;20435;-82
2022/05/23 06:22:21;;;;;;;13.18;12.15;;;;;;;;;;6472357;23;20020;-82
2022/05/23 06:24:52;;;;;;;12.55;11.25;;;;;;;;;;6471716;23;19996;-84
2022/05/23 06:27:22;;;;;;;12.20;11.00;;;;;;;;;;6470894;23;20421;-83
2022/05/23 06:29:52;;;;;;;13.32;11.98;;;;;;;;;;6470877;23;20227;-81
2022/05/23 06:32:23;;;;;;;12.75;11.48;;;;;;;;;;6445494;23;20112;-83
2022/05/23 06:34:53;;;;;;;12.95;11.77;;;;;;;;;;6471564;23;19988;-84
2022/05/23 06:37:23;;;;;;;10.75;9.88;;;;;;;;;;6470521;23;20019;-84
2022/05/23 06:39:54;;;;;;;13.20;11.68;;;;;;;;;;6471531;23;20047;-83
2022/05/23 06:42:39;;;;;;;14.07;12.00;;;;;;;;;;5270781;28;20396;-62
2022/05/23 06:45:10;;;;;;;12.05;10.60;;;;;;;;;;5271180;28;20047;-62
2022/05/23 06:47:40;;;;;;;9.38;8.57;;;;;;;;;;5269359;28;20023;-62
2022/05/23 06:50:11;;;;;;;9.75;9.02;;;;;;;;;;5270778;28;20019;-62
2022/05/23 06:52:41;;;;;;;12.07;10.98;;;;;;;;;;5270724;28;20027;-62
2022/05/23 06:55:12;;;;;;;18.88;10.98;;;;;;;;;;5268818;28;20020;-62
2022/05/23 06:57:43;;;;;;;16.75;9.57;;;;;;;;;;5267043;28;20169;-63
2022/05/23 07:00:13;;;;;;;11.98;10.75;;;;;;;;;;5264774;28;20024;-63
2022/05/23 07:02:43;;;;;;;10.55;9.45;;;;;;;;;;5265032;28;20141;-63
2022/05/23 07:13:44;;;;;;;16.47;10.07;;;;;;;;;;5265371;28;20028;-63
2022/05/23 07:16:16;;;;;;;10.05;9.15;;;;;;;;;;5265694;28;20021;-62
2022/05/23 07:18:47;;;;;;;11.38;10.52;;;;;;;;;;5264887;28;20553;-63
2022/05/23 07:21:18;;;;;;;13.15;12.18;;;;;;;;;;5264814;28;20028;-63
2022/05/23 07:23:48;;;;;;;10.00;9.20;;;;;;;;;;5239483;22;20096;-63
2022/05/23 07:26:19;;;;;;;11.77;10.70;;;;;;;;;;5199518;28;20394;-63
2022/05/23 07:28:50;;;;;;;11.23;10.07;;;;;;;;;;5199789;28;20037;-63
2022/05/23 07:31:20;;;;;;;10.43;9.52;;;;;;;;;;5199854;28;20501;-63
2022/05/23 07:33:51;;;;;;;12.02;10.98;;;;;;;;;;5200789;28;20028;-63
2022/05/23 07:36:21;;;;;;;9.80;8.23;;;;;;;;;;5199407;28;20029;-63
2022/05/23 07:38:51;;;;;;;9.70;8.95;;;;;;;;;;5199570;28;20021;-63
2022/05/23 07:41:22;;;;;;;13.27;9.65;;;;;;;;;;5199147;28;20482;-63
2022/05/23 07:43:52;;;;;;;7.70;7.10;;;;;;;;;;5199104;28;20072;-63
2022/05/23 07:46:22;;;;;;;8.18;7.47;;;;;;;;;;5199257;28;20022;-63
2022/05/23 07:48:53;;;;;;;9.00;8.38;;;;;;;;;;5197349;28;20391;-63
2022/05/23 07:51:23;;;;;;;8.05;7.35;;;;;;;;;;5198366;28;20017;-64
2022/05/23 08:02:20;;;;;;;12.90;9.20;;;;;;;;;;5186408;28;20056;-63
2022/05/23 08:04:50;;;;;;;8.10;7.30;;;;;;;;;;5184804;28;20018;-63
2022/05/23 08:07:21;;;;;;;7.22;6.63;;;;;;;;;;5185239;28;20080;-64
2022/05/23 08:09:51;;;;;;;7.43;6.75;;;;;;;;;;5185182;28;20041;-63
2022/05/23 08:12:21;;;;;;;8.30;7.43;;;;;;;;;;5185054;28;20593;-63
2022/05/23 08:14:52;;;;;;;8.75;7.75;;;;;;;;;;5184896;28;20132;-63
2022/05/23 08:17:22;;;;;;;11.88;8.77;;;;;;;;;;5185046;28;20026;-63
2022/05/23 08:19:54;;;;;;;9.32;8.45;;;;;;;;;;5184875;28;20014;-63
2022/05/23 08:22:26;;;;;;;10.43;9.63;;;;;;;;;;5184808;28;20035;-63
2022/05/23 08:24:57;;;;;;;21.33;8.93;;;;;;;;;;5184828;28;20026;-63
2022/05/23 08:27:28;;;;;;;9.63;9.02;;;;;;;;;;5186772;28;20026;-63
2022/05/23 08:29:58;;;;;;;7.93;7.18;;;;;;;;;;5187156;28;20018;-64
2022/05/23 08:32:29;;;;;;;7.82;7.28;;;;;;;;;;5189137;28;20026;-63
2022/05/23 08:34:59;;;;;;;8.15;7.40;;;;;;;;;;5186717;28;20297;-63
2022/05/23 08:37:29;;;;;;;9.02;8.40;;;;;;;;;;5188954;28;20113;-63
2022/05/23 08:40:00;;;;;;;8.80;8.10;;;;;;;;;;5188419;28;20022;-63
2022/05/23 08:42:48;;;;;;;6.43;5.93;;;;;;;;;;5186619;28;20076;-64
2022/05/23 08:45:21;;;;;;;12.60;4.77;;;;;;;;;;5187192;28;20545;-64
2022/05/23 08:48:18;;;;;;;5.68;5.18;;;;;;;;;;5185845;28;20281;-63
2022/05/23 08:51:01;;;;;;;4.50;4.20;;;;;;;;;;5182966;28;20034;-61
2022/05/23 08:53:41;;;;;;;4.88;4.28;;;;;;;;;;5184239;28;20028;-64
2022/05/23 08:56:33;;;;;;;11.32;4.38;;;;;;;;;;5184063;28;20025;-62
2022/05/23 08:59:05;;;;;;;4.63;4.32;;;;;;;;;;5183964;28;20049;-62
2022/05/23 09:01:43;;;;;;;7.65;4.18;;;;;;;;;;5184045;28;20026;-62
2022/05/23 09:04:32;;;;;;;4.47;4.15;;;;;;;;;;5182932;28;20018;-62
2022/05/23 09:07:05;;;;;;;4.07;3.67;;;;;;;;;;5184021;28;20022;-62
2022/05/23 09:09:36;;;;;;;4.20;3.60;;;;;;;;;;5183888;28;20017;-62
2022/05/23 09:12:11;;;;;;;5.15;3.95;;;;;;;;;;5183690;28;20022;-62
2022/05/23 09:14:41;;;;;;;6.43;4.10;;;;;;;;;;5183283;28;20060;-62
2022/05/23 09:17:20;;;;;;;3.78;3.47;;;;;;;;;;5184778;28;20057;-62
2022/05/23 09:20:00;;;;;;;4.43;4.10;;;;;;;;;;5183776;28;20484;-62
2022/05/23 09:22:30;;;;;;;4.32;4.00;;;;;;;;;;5183473;28;20465;-63
2022/05/23 09:25:01;;;;;;;4.10;3.90;;;;;;;;;;5183458;28;20034;-62
2022/05/23 09:27:36;;;;;;;4.22;3.83;;;;;;;;;;5183321;28;20546;-62
2022/05/23 09:30:11;;;;;;;3.95;2.78;;;;;;;;;;5183538;28;20367;-62
2022/05/23 09:32:46;;;;;;;3.65;3.45;;;;;;;;;;5183572;28;20393;-63
2022/05/23 09:35:18;;;;;;;3.55;3.25;;;;;;;;;;5183296;28;20018;-62
2022/05/23 09:38:08;;;;;;;3.53;3.42;;;;;;;;;;5183590;28;20060;-62
2022/05/23 09:40:38;;;;;;;3.85;3.50;;;;;;;;;;5182940;28;20021;-62
2022/05/23 09:49:15;;;;;;;4.03;3.83;;;;;;;;;;5185751;28;20084;-62
2022/05/23 09:51:54;;;;;;;3.97;3.67;;;;;;;;;;5185762;28;20100;-61
2022/05/23 09:54:26;;;;;;;5.35;2.63;;;;;;;;;;5183926;28;20022;-62
2022/05/23 09:56:59;;;;;;;3.97;3.83;;;;;;;;;;5183759;28;20034;-62
2022/05/23 09:59:34;;;;;;;5.25;3.92;;;;;;;;;;5183297;28;20061;-63
2022/05/23 10:02:25;;;;;;;3.90;3.67;;;;;;;;;;5183267;28;20021;-63
2022/05/23 10:04:56;;;;;;;4.38;2.75;;;;;;;;;;5176009;28;20030;-63
2022/05/23 10:07:36;;;;;;;3.92;3.58;;;;;;;;;;5183404;28;20018;-63
2022/05/23 10:10:21;;;;;;;4.60;4.30;;;;;;;;;;5183301;28;20029;-64
2022/05/23 10:13:09;;;;;;;10.15;4.43;;;;;;;;;;5183675;28;20061;-63
2022/05/23 10:15:44;;;;;;;4.47;4.17;;;;;;;;;;5183072;28;20026;-64
2022/05/23 10:18:19;;;;;;;4.07;3.80;;;;;;;;;;5183559;28;20253;-63
2022/05/23 10:20:50;;;;;;;4.13;3.83;;;;;;;;;;5183859;28;20044;-63
2022/05/23 10:23:29;;;;;;;4.88;3.53;;;;;;;;;;5183079;28;20033;-63
2022/05/23 10:26:06;;;;;;;3.97;3.77;;;;;;;;;;5183140;28;20022;-64
2022/05/23 10:28:49;;;;;;;5.15;3.28;;;;;;;;;;5183545;28;20030;-64
2022/05/23 10:31:22;;;;;;;3.90;3.60;;;;;;;;;;5183672;28;20032;-64
2022/05/23 10:34:01;;;;;;;5.90;4.47;;;;;;;;;;5183510;28;20426;-63
2022/05/23 10:36:31;;;;;;;3.13;2.95;;;;;;;;;;5183802;28;20022;-64
2022/05/23 10:42:11;;;;;;;3.03;2.83;;;;;;;;;;5184908;28;20109;-65
2022/05/23 10:44:49;;;;;;;2.70;2.50;;;;;;;;;;5182826;28;20483;-65
2022/05/23 10:47:38;;;;;;;2.92;2.20;;;;;;;;;;5183328;28;20018;-64
2022/05/23 10:50:09;;;;;;;;;;;;;;;;;;5184125;28;20109;-64
2022/05/23 10:52:47;;;;;;;2.38;2.28;;;;;;;;;;5184935;28;19996;-62
2022/05/23 10:55:22;;;;;;;3.35;3.10;;;;;;;;;;5182915;28;20108;-63
2022/05/23 10:57:59;;;;;;;4.47;4.13;;;;;;;;;;5183615;28;20033;-62
2022/05/23 11:00:37;;;;;;;2.65;2.50;;;;;;;;;;5182707;28;20029;-61
2022/05/23 11:03:08;;;;;;;2.15;2.05;;;;;;;;;;5182717;28;20033;-62
2022/05/23 11:06:01;;;;;;;2.90;2.80;;;;;;;;;;5182178;28;20021;-63
2022/05/23 11:08:44;;;;;;;2.22;2.10;;;;;;;;;;5182798;28;20010;-62
2022/05/23 11:11:18;;;;;;;3.33;2.60;;;;;;;;;;5182378;28;20172;-63
2022/05/23 11:13:49;;;;;;;3.25;3.05;;;;;;;;;;5182262;28;20028;-63
2022/05/23 11:16:38;;;;;;;2.63;2.45;;;;;;;;;;5183203;28;20121;-63
2022/05/23 11:19:20;;;;;;;3.28;3.15;;;;;;;;;;5183107;28;20481;-63
2022/05/23 11:21:51;;;;;;;3.40;2.25;;;;;;;;;;5184185;28;20021;-63
2022/05/23 11:24:24;;;;;;;6.38;2.92;;;;;;;;;;5182228;28;20030;-63
2022/05/23 11:33:41;;;;;;;2.55;2.35;;;;;;;;;;5182692;28;20025;-64
2022/05/23 11:35:31;;;;;;;2.83;2.63;;;;;;;;;;5188595;28;20072;-62
2022/05/23 11:38:02;;;;;;;3.17;2.92;;;;;;;;;;5187378;28;20025;-63
2022/05/23 11:40:38;;;;;;;2.30;2.20;;;;;;;;;;5186967;28;20460;-63
2022/05/23 11:43:10;;;;;;;3.05;2.88;;;;;;;;;;5187003;28;20045;-62
2022/05/23 11:45:57;;;;;;;3.83;3.53;;;;;;;;;;5186657;28;20018;-62
2022/05/23 11:48:37;;;;;;;3.00;2.78;;;;;;;;;;5185396;28;20022;-63
2022/05/23 11:51:09;;;;;;;5.53;2.80;;;;;;;;;;5185298;28;20029;-65
2022/05/23 11:53:45;;;;;;;2.90;2.63;;;;;;;;;;5185019;28;20091;-64
2022/05/23 11:56:34;;;;;;;2.63;2.03;;;;;;;;;;5185542;28;20441;-63
2022/05/23 11:59:06;;;;;;;3.65;3.38;;;;;;;;;;5184925;28;20401;-63
2022/05/23 12:01:37;;;;;;;2.97;2.78;;;;;;;;;;5186396;28;20074;-63
2022/05/23 12:04:12;;;;;;;4.75;4.35;;;;;;;;;;5184837;28;20026;-64
2022/05/23 12:06:43;;;;;;;5.53;3.22;;;;;;;;;;5185189;28;20045;-66
2022/05/23 12:09:13;;;;;;;23.98;4.68;;;;;;;;;;5184982;28;20065;-66
2022/05/23 12:11:44;;;;;;;4.43;4.00;;;;;;;;;;5185014;28;20029;-66
2022/05/23 12:14:17;;;;;;;3.78;3.58;;;;;;;;;;5184634;28;20578;-66
2022/05/23 12:16:50;;;;;;;4.25;3.95;;;;;;;;;;5185204;28;20482;-66
2022/05/23 12:19:27;;;;;;;4.13;3.90;;;;;;;;;;5184773;28;20081;-66
2022/05/23 12:22:26;;;;;;;3.85;3.65;;;;;;;;;;5184535;28;20117;-65
2022/05/23 12:25:23;;;;;;;4.93;4.15;;;;;;;;;;5175598;28;20117;-64
2022/05/23 12:27:55;;;;;;;7.80;5.20;;;;;;;;;;5182117;28;20058;-64
2022/05/23 12:30:28;;;;;;;4.78;4.38;;;;;;;;;;5183650;28;20029;-65
2022/05/23 12:32:58;;;;;;;4.25;4.05;;;;;;;;;;5184639;28;20021;-66
2022/05/23 12:35:48;;;;;;;4.15;3.85;;;;;;;;;;5185471;28;20022;-65
2022/05/23 12:38:33;;;;;;;5.35;4.93;;;;;;;;;;5184472;28;20022;-65
2022/05/23 12:41:17;;;;;;;8.77;5.80;;;;;;;;;;5184294;28;20532;-63
2022/05/23 12:43:59;;;;;;;14.75;7.20;;;;;;;;;;5184225;28;20066;-64
2022/05/23 12:46:32;;;;;;;7.45;6.95;;;;;;;;;;5183981;28;20057;-64
2022/05/23 12:49:21;;;;;;;8.35;6.10;;;;;;;;;;5184459;28;20075;-65
2022/05/23 12:52:10;;;;;;;6.78;6.45;;;;;;;;;;5184137;28;20120;-66
2022/05/23 12:54:52;;;;;;;8.48;7.20;;;;;;;;;;5183738;28;20539;-67
2022/05/23 12:57:42;;;;;;;5.30;5.00;;;;;;;;;;5185693;28;20053;-67
2022/05/23 13:00:14;;;;;;;6.07;5.68;;;;;;;;;;5184138;28;20021;-66
2022/05/23 13:02:57;;;;;;;6.88;6.43;;;;;;;;;;5183914;28;20539;-64
2022/05/23 13:05:33;;;;;;;6.82;6.10;;;;;;;;;;5183434;28;20040;-64
2022/05/23 13:08:19;;;;;;;6.97;6.45;;;;;;;;;;5183976;28;20022;-64
2022/05/23 13:11:01;;;;;;;7.28;6.40;;;;;;;;;;5183765;28;20022;-66
2022/05/23 13:13:35;;;;;;;7.72;7.07;;;;;;;;;;5183358;28;20050;-67
2022/05/23 13:16:26;;;;;;;6.65;6.13;;;;;;;;;;5183791;28;20026;-67
2022/05/23 13:22:05;;;;;;;5.38;4.95;;;;;;;;;;5184399;28;20056;-66
2022/05/23 13:24:54;;;;;;;8.85;6.32;;;;;;;;;;5247690;23;20518;-80
2022/05/23 13:27:26;;;;;;;5.28;4.97;;;;;;;;;;5239411;28;20021;-80
2022/05/23 13:29:57;;;;;;;9.48;6.93;;;;;;;;;;5239212;28;20020;-80
2022/05/23 13:32:28;;;;;;;6.10;5.70;;;;;;;;;;5238650;28;20028;-80
2022/05/23 13:35:15;;;;;;;7.82;7.22;;;;;;;;;;5238165;28;20445;-79
2022/05/23 13:37:45;;;;;;;6.13;5.65;;;;;;;;;;5241657;28;20021;-80
2022/05/23 13:40:24;;;;;;;6.32;5.78;;;;;;;;;;5242372;28;20009;-80
2022/05/23 13:43:11;;;;;;;6.45;5.95;;;;;;;;;;5238985;28;20063;-85
2022/05/23 13:45:42;;;;;;;5.75;5.28;;;;;;;;;;5240322;28;20021;-87
2022/05/23 13:48:17;;;;;;;10.38;5.50;;;;;;;;;;5237982;28;20025;-87
2022/05/23 13:50:54;;;;;;;11.70;6.45;;;;;;;;;;5236222;28;20025;-87
2022/05/23 13:53:30;;;;;;;11.85;7.28;;;;;;;;;;5236854;28;20029;-86
2022/05/23 13:56:02;;;;;;;8.50;7.70;;;;;;;;;;5238201;28;20013;-82
2022/05/23 13:58:34;;;;;;;8.15;7.50;;;;;;;;;;5241383;28;20036;-81
2022/05/23 14:01:06;;;;;;;8.95;8.15;;;;;;;;;;5241714;28;20017;-81
2022/05/23 14:03:41;;;;;;;6.57;6.07;;;;;;;;;;5243785;28;20013;-81
2022/05/23 14:06:13;;;;;;;10.40;7.15;;;;;;;;;;5244399;28;20016;-83
2022/05/23 14:08:45;;;;;;;8.55;8.07;;;;;;;;;;5238292;28;20046;-82
2022/05/23 14:11:23;;;;;;;9.40;7.97;;;;;;;;;;5237454;28;20402;-81
2022/05/23 14:13:59;;;;;;;17.95;16.35;;;;;;;;;;5237853;28;20017;-81
2022/05/23 14:16:29;;;;;;;12.50;11.32;;;;;;;;;;5235830;28;20013;-81
2022/05/23 14:19:12;;;;;;;16.05;14.57;;;;;;;;;;5235806;28;20163;-82
2022/05/23 14:21:42;;;;;;;9.13;8.23;;;;;;;;;;5237420;28;20013;-81
2022/05/23 14:24:26;;;;;;;10.43;9.60;;;;;;;;;;5237606;28;20054;-81
2022/05/23 14:27:15;;;;;;;9.43;8.48;;;;;;;;;;5237346;28;20290;-80
2022/05/23 14:29:47;;;;;;;11.98;9.52;;;;;;;;;;5236974;28;20132;-81
2022/05/23 14:32:24;;;;;;;7.95;7.18;;;;;;;;;;5237947;28;20036;-82
2022/05/23 14:34:54;;;;;;;5.95;5.55;;;;;;;;;;5235335;28;20017;-82
2022/05/23 14:37:25;;;;;;;10.43;6.97;;;;;;;;;;5236065;28;20322;-80
2022/05/23 14:39:55;;;;;;;6.28;5.78;;;;;;;;;;5237095;28;20029;-83
2022/05/23 14:42:29;;;;;;;6.28;5.88;;;;;;;;;;5236756;28;20156;-84
2022/05/23 14:45:11;;;;;;;6.13;5.72;;;;;;;;;;5237913;28;20017;-84
2022/05/23 14:48:00;;;;;;;19.10;7.97;;;;;;;;;;5239359;28;20015;-84
2022/05/23 14:50:34;;;;;;;10.73;7.00;;;;;;;;;;5245417;28;20113;-82
2022/05/23 14:55:55;;;;;;;7.28;6.80;;;;;;;;;;5246453;28;20115;-82
2022/05/23 15:01:20;;;;;;;8.50;7.82;;;;;;;;;;5236999;28;20033;-82
2022/05/23 15:03:52;;;;;;;11.05;7.82;;;;;;;;;;5240040;28;20021;-83
2022/05/23 15:06:23;;;;;;;6.75;6.35;;;;;;;;;;5239701;28;20029;-83
2022/05/23 15:08:53;;;;;;;9.23;7.78;;;;;;;;;;5240754;28;20104;-82
2022/05/23 15:11:27;;;;;;;8.02;7.43;;;;;;;;;;5241042;28;20017;-84
2022/05/23 15:13:58;;;;;;;10.05;7.07;;;;;;;;;;5241407;28;20032;-83
2022/05/23 15:16:30;;;;;;;9.65;8.75;;;;;;;;;;5242657;28;20024;-81
2022/05/23 15:19:01;;;;;;;8.38;7.68;;;;;;;;;;5240360;28;20021;-82
2022/05/23 15:21:32;;;;;;;8.70;7.85;;;;;;;;;;5243069;28;20071;-82
2022/05/23 15:24:02;;;;;;;11.82;10.68;;;;;;;;;;5238241;28;20021;-81
2022/05/23 15:32:24;;;;;;;13.23;11.88;;;;;;;;;;5217104;28;20116;-80
2022/05/23 15:34:55;;;;;;;11.93;11.02;;;;;;;;;;5218260;28;20053;-81
2022/05/23 15:37:25;;;;;;;12.57;11.50;;;;;;;;;;5219529;28;20443;-80
2022/05/23 15:39:56;;;;;;;13.10;12.10;;;;;;;;;;5219484;28;20125;-80
2022/05/23 15:42:29;;;;;;;10.55;9.88;;;;;;;;;;5220912;28;20296;-81
2022/05/23 15:45:05;;;;;;;12.57;11.52;;;;;;;;;;5218004;28;20014;-81
2022/05/23 15:47:35;;;;;;;12.35;11.15;;;;;;;;;;5219858;28;20017;-81
2022/05/23 15:50:07;;;;;;;11.15;10.35;;;;;;;;;;5217230;28;20018;-82
2022/05/23 15:52:38;;;;;;;12.20;11.30;;;;;;;;;;5217065;28;20025;-82
2022/05/23 15:55:08;;;;;;;10.65;10.02;;;;;;;;;;5217473;28;20052;-81
2022/05/23 15:57:43;;;;;;;16.00;14.98;;;;;;;;;;5217850;28;20021;-81
2022/05/23 16:00:15;;;;;;;19.23;17.75;;;;;;;;;;5220024;28;20045;-81
2022/05/23 16:02:46;;;;;;;17.83;16.40;;;;;;;;;;5220045;28;20041;-83
2022/05/23 16:05:16;;;;;;;18.40;17.15;;;;;;;;;;5219571;28;20020;-82
2022/05/23 16:07:47;;;;;;;23.80;22.05;;;;;;;;;;5219938;28;20025;-81
2022/05/23 16:10:18;;;;;;;25.55;23.58;;;;;;;;;;5220304;28;20025;-82
2022/05/23 16:12:51;;;;;;;24.65;22.48;;;;;;;;;;5220331;28;20315;-83
2022/05/23 16:15:23;;;;;;;30.30;27.83;;;;;;;;;;5220037;28;20499;-83
2022/05/23 16:17:54;;;;;;;26.38;24.08;;;;;;;;;;5220262;28;20036;-82
2022/05/23 16:20:26;;;;;;;27.83;25.60;;;;;;;;;;5218806;28;20045;-82
2022/05/23 16:23:01;;;;;;;21.98;19.95;;;;;;;;;;5221000;28;20026;-82
2022/05/23 16:25:31;;;;;;;24.60;22.55;;;;;;;;;;5220363;28;20037;-83